sensor_id;sensor_type;location;lat;lon;timestamp;pressure;altitude;pressure_sealevel;temperature;humidity
41140;BME280;26881;48.784;9.192;2023-08-08T00:04:01;98728.22;;;14.18;68.76
41140;BME280;26881;48.784;9.192;2023-08-08T00:09:23;98728.63;;;14.24;68.38
41140;BME280;26881;48.784;9.192;2023-08-08T00:14:45;98730.81;;;14.30;68.12
41140;BME280;26881;48.784;9.192;2023-08-08T00:20:07;98735.31;;;14.41;67.87
41140;BME280;26881;48.784;9.192;2023-08-08T00:25:29;98747.91;;;14.49;67.61
41140;BME280;26881;48.784;9.192;2023-08-08T00:30:51;98733.81;;;14.50;67.28
41140;BME280;26881;48.784;9.192;2023-08-08T00:36:13;98734.22;;;14.57;66.90
41140;BME280;26881;48.784;9.192;2023-08-08T00:41:35;98728.25;;;14.54;66.97
41140;BME280;26881;48.784;9.192;2023-08-08T00:46:57;98729.47;;;14.62;66.75
41140;BME280;26881;48.784;9.192;2023-08-08T00:52:19;98729.97;;;14.67;66.59
41140;BME280;26881;48.784;9.192;2023-08-08T00:57:41;98723.88;;;14.53;67.31
41140;BME280;26881;48.784;9.192;2023-08-08T01:03:03;98717.28;;;14.48;67.85
41140;BME280;26881;48.784;9.192;2023-08-08T01:08:33;98715.34;;;14.63;67.05
41140;BME280;26881;48.784;9.192;2023-08-08T01:13:57;98710.72;;;14.66;66.79
41140;BME280;26881;48.784;9.192;2023-08-08T01:19:25;98711.03;;;14.62;66.91
41140;BME280;26881;48.784;9.192;2023-08-08T01:24:47;98713.44;;;14.65;67.18
41140;BME280;26881;48.784;9.192;2023-08-08T01:30:10;98705.38;;;14.55;68.17
41140;BME280;26881;48.784;9.192;2023-08-08T01:35:37;98699.47;;;14.51;68.49
41140;BME280;26881;48.784;9.192;2023-08-08T01:41:04;98697.34;;;14.57;68.17
41140;BME280;26881;48.784;9.192;2023-08-08T01:46:26;98690.53;;;14.54;68.99
41140;BME280;26881;48.784;9.192;2023-08-08T01:51:48;98693.16;;;14.54;69.08
41140;BME280;26881;48.784;9.192;2023-08-08T01:57:12;98696.31;;;14.59;69.10
41140;BME280;26881;48.784;9.192;2023-08-08T02:02:34;98692.72;;;14.60;69.23
41140;BME280;26881;48.784;9.192;2023-08-08T02:07:57;98691.06;;;14.59;69.51
41140;BME280;26881;48.784;9.192;2023-08-08T02:13:19;98686.63;;;14.60;69.28
41140;BME280;26881;48.784;9.192;2023-08-08T02:18:41;98678.50;;;14.63;69.32
41140;BME280;26881;48.784;9.192;2023-08-08T02:24:03;98673.84;;;14.66;69.00
41140;BME280;26881;48.784;9.192;2023-08-08T02:29:25;98679.47;;;14.62;69.35
41140;BME280;26881;48.784;9.192;2023-08-08T02:34:47;98665.63;;;14.71;68.54
41140;BME280;26881;48.784;9.192;2023-08-08T02:40:09;98675.91;;;14.50;69.74
41140;BME280;26881;48.784;9.192;2023-08-08T02:45:31;98677.63;;;14.38;70.25
41140;BME280;26881;48.784;9.192;2023-08-08T02:50:53;98679.81;;;14.44;70.08
41140;BME280;26881;48.784;9.192;2023-08-08T02:56:15;98671.19;;;14.42;70.15
41140;BME280;26881;48.784;9.192;2023-08-08T03:01:37;98672.34;;;14.38;70.38
41140;BME280;26881;48.784;9.192;2023-08-08T03:07:01;98668.22;;;14.23;70.95
41140;BME280;26881;48.784;9.192;2023-08-08T03:12:25;98675.13;;;14.37;70.34
41140;BME280;26881;48.784;9.192;2023-08-08T03:17:47;98673.16;;;14.27;70.90
41140;BME280;26881;48.784;9.192;2023-08-08T03:23:09;98668.63;;;14.29;70.85
41140;BME280;26881;48.784;9.192;2023-08-08T03:28:31;98667.44;;;14.09;71.84
41140;BME280;26881;48.784;9.192;2023-08-08T03:33:53;98678.84;;;13.97;72.92
41140;BME280;26881;48.784;9.192;2023-08-08T03:39:15;98673.81;;;13.94;72.96
41140;BME280;26881;48.784;9.192;2023-08-08T03:44:37;98666.84;;;13.93;73.18
41140;BME280;26881;48.784;9.192;2023-08-08T03:49:59;98670.22;;;13.95;73.27
41140;BME280;26881;48.784;9.192;2023-08-08T03:55:20;98668.91;;;14.01;73.67
41140;BME280;26881;48.784;9.192;2023-08-08T04:00:43;98671.03;;;14.08;72.90
41140;BME280;26881;48.784;9.192;2023-08-08T04:06:08;98661.72;;;14.16;73.24
41140;BME280;26881;48.784;9.192;2023-08-08T04:11:30;98672.66;;;14.22;73.62
41140;BME280;26881;48.784;9.192;2023-08-08T04:16:52;98677.59;;;14.27;73.56
41140;BME280;26881;48.784;9.192;2023-08-08T04:22:13;98673.50;;;14.23;73.72
41140;BME280;26881;48.784;9.192;2023-08-08T04:27:37;98672.31;;;14.27;73.30
41140;BME280;26881;48.784;9.192;2023-08-08T04:32:59;98674.28;;;14.36;72.02
41140;BME280;26881;48.784;9.192;2023-08-08T04:38:20;98664.75;;;14.46;71.43
41140;BME280;26881;48.784;9.192;2023-08-08T04:43:42;98685.81;;;14.46;71.77
41140;BME280;26881;48.784;9.192;2023-08-08T04:49:04;98685.16;;;14.56;71.66
41140;BME280;26881;48.784;9.192;2023-08-08T04:54:26;98685.44;;;14.64;71.41
41140;BME280;26881;48.784;9.192;2023-08-08T04:59:48;98685.66;;;14.61;71.95
41140;BME280;26881;48.784;9.192;2023-08-08T05:05:10;98689.25;;;14.60;71.78
41140;BME280;26881;48.784;9.192;2023-08-08T05:10:32;98679.13;;;14.53;72.38
41140;BME280;26881;48.784;9.192;2023-08-08T05:15:53;98674.53;;;14.57;71.69
41140;BME280;26881;48.784;9.192;2023-08-08T05:21:15;98668.47;;;14.68;70.27
41140;BME280;26881;48.784;9.192;2023-08-08T05:26:37;98664.94;;;14.91;68.26
41140;BME280;26881;48.784;9.192;2023-08-08T05:31:59;98669.63;;;14.88;68.76
41140;BME280;26881;48.784;9.192;2023-08-08T05:37:21;98670.72;;;14.96;68.64
41140;BME280;26881;48.784;9.192;2023-08-08T05:42:43;98679.84;;;15.04;68.42
41140;BME280;26881;48.784;9.192;2023-08-08T05:48:06;98680.91;;;15.12;67.99
41140;BME280;26881;48.784;9.192;2023-08-08T05:53:28;98680.81;;;15.25;66.81
41140;BME280;26881;48.784;9.192;2023-08-08T05:58:50;98685.84;;;15.28;67.02
41140;BME280;26881;48.784;9.192;2023-08-08T06:04:12;98691.38;;;15.36;66.58
41140;BME280;26881;48.784;9.192;2023-08-08T06:09:36;98697.16;;;15.53;66.25
41140;BME280;26881;48.784;9.192;2023-08-08T06:14:59;98683.47;;;15.59;65.45
41140;BME280;26881;48.784;9.192;2023-08-08T06:20:21;98686.63;;;15.87;64.79
41140;BME280;26881;48.784;9.192;2023-08-08T06:25:43;98676.31;;;16.06;64.06
41140;BME280;26881;48.784;9.192;2023-08-08T06:31:06;98676.41;;;16.16;63.84
41140;BME280;26881;48.784;9.192;2023-08-08T06:36:28;98674.53;;;16.39;62.90
41140;BME280;26881;48.784;9.192;2023-08-08T06:41:50;98677.34;;;16.58;61.87
41140;BME280;26881;48.784;9.192;2023-08-08T06:47:12;98676.97;;;16.95;60.46
41140;BME280;26881;48.784;9.192;2023-08-08T06:52:34;98674.06;;;16.98;59.78
41140;BME280;26881;48.784;9.192;2023-08-08T06:57:56;98677.22;;;17.13;58.95
41140;BME280;26881;48.784;9.192;2023-08-08T07:03:18;98678.19;;;17.12;59.48
41140;BME280;26881;48.784;9.192;2023-08-08T07:08:40;98670.56;;;17.40;58.30
41140;BME280;26881;48.784;9.192;2023-08-08T07:14:01;98674.66;;;17.54;58.16
41140;BME280;26881;48.784;9.192;2023-08-08T07:19:23;98671.19;;;17.84;57.73
41140;BME280;26881;48.784;9.192;2023-08-08T07:24:45;98672.78;;;18.06;57.13
41140;BME280;26881;48.784;9.192;2023-08-08T07:30:07;98665.41;;;18.09;55.96
41140;BME280;26881;48.784;9.192;2023-08-08T07:35:30;98663.91;;;18.46;54.92
41140;BME280;26881;48.784;9.192;2023-08-08T07:40:52;98669.50;;;18.43;55.06
41140;BME280;26881;48.784;9.192;2023-08-08T07:46:14;98660.44;;;18.55;54.40
41140;BME280;26881;48.784;9.192;2023-08-08T07:51:36;98659.88;;;19.10;51.76
41140;BME280;26881;48.784;9.192;2023-08-08T07:56:58;98663.31;;;19.30;50.32
41140;BME280;26881;48.784;9.192;2023-08-08T08:02:20;98644.47;;;19.33;49.55
41140;BME280;26881;48.784;9.192;2023-08-08T08:07:42;98640.09;;;19.42;49.62
41140;BME280;26881;48.784;9.192;2023-08-08T08:13:04;98638.56;;;19.39;49.14
41140;BME280;26881;48.784;9.192;2023-08-08T08:18:26;98637.00;;;19.46;48.18
41140;BME280;26881;48.784;9.192;2023-08-08T08:23:48;98651.47;;;19.62;47.32
41140;BME280;26881;48.784;9.192;2023-08-08T08:29:10;98652.09;;;19.46;48.61
41140;BME280;26881;48.784;9.192;2023-08-08T08:34:32;98641.56;;;19.64;48.64
41140;BME280;26881;48.784;9.192;2023-08-08T08:39:54;98646.41;;;19.78;48.34
41140;BME280;26881;48.784;9.192;2023-08-08T08:45:18;98641.44;;;19.65;49.12
41140;BME280;26881;48.784;9.192;2023-08-08T08:50:42;98632.78;;;20.54;47.18
41140;BME280;26881;48.784;9.192;2023-08-08T08:56:06;98629.97;;;20.20;47.80
41140;BME280;26881;48.784;9.192;2023-08-08T09:01:28;98620.72;;;20.60;47.33
41140;BME280;26881;48.784;9.192;2023-08-08T09:06:52;98620.56;;;21.32;45.94
41140;BME280;26881;48.784;9.192;2023-08-08T09:12:14;98622.38;;;21.92;44.16
41140;BME280;26881;48.784;9.192;2023-08-08T09:17:44;98610.50;;;21.78;43.34
41140;BME280;26881;48.784;9.192;2023-08-08T09:23:10;98610.22;;;21.97;43.16
41140;BME280;26881;48.784;9.192;2023-08-08T09:28:32;98619.28;;;21.36;43.01
41140;BME280;26881;48.784;9.192;2023-08-08T09:33:56;98604.84;;;21.73;43.02
41140;BME280;26881;48.784;9.192;2023-08-08T09:39:18;98607.53;;;21.20;44.40
41140;BME280;26881;48.784;9.192;2023-08-08T09:44:42;98587.66;;;22.26;42.33
41140;BME280;26881;48.784;9.192;2023-08-08T09:50:05;98575.34;;;22.41;41.55
41140;BME280;26881;48.784;9.192;2023-08-08T09:55:29;98579.56;;;21.93;41.41
41140;BME280;26881;48.784;9.192;2023-08-08T10:00:52;98571.81;;;22.82;40.93
41140;BME280;26881;48.784;9.192;2023-08-08T10:06:15;98569.34;;;23.52;37.78
41140;BME280;26881;48.784;9.192;2023-08-08T10:11:37;98570.41;;;23.83;38.13
41140;BME280;26881;48.784;9.192;2023-08-08T10:17:02;98567.41;;;23.38;37.66
41140;BME280;26881;48.784;9.192;2023-08-08T10:22:24;98548.22;;;24.28;35.48
41140;BME280;26881;48.784;9.192;2023-08-08T10:27:46;98559.75;;;24.06;34.83
41140;BME280;26881;48.784;9.192;2023-08-08T10:33:25;98564.69;;;23.86;33.79
41140;BME280;26881;48.784;9.192;2023-08-08T10:38:49;98563.13;;;23.60;33.98
41140;BME280;26881;48.784;9.192;2023-08-08T10:44:21;98560.09;;;24.26;33.05
41140;BME280;26881;48.784;9.192;2023-08-08T10:49:44;98555.66;;;24.18;32.61
41140;BME280;26881;48.784;9.192;2023-08-08T11:00:42;98566.66;;;23.05;32.36
41140;BME280;26881;48.784;9.192;2023-08-08T11:06:04;98544.75;;;24.66;30.25
41140;BME280;26881;48.784;9.192;2023-08-08T11:11:27;98550.16;;;23.88;31.00
41140;BME280;26881;48.784;9.192;2023-08-08T11:16:50;98545.19;;;23.46;33.52
41140;BME280;26881;48.784;9.192;2023-08-08T11:22:13;98532.94;;;24.37;31.04
41140;BME280;26881;48.784;9.192;2023-08-08T11:27:35;98551.38;;;23.77;31.94
41140;BME280;26881;48.784;9.192;2023-08-08T11:33:00;98545.03;;;23.79;33.05
41140;BME280;26881;48.784;9.192;2023-08-08T11:38:25;98531.81;;;25.37;28.50
41140;BME280;26881;48.784;9.192;2023-08-08T11:43:47;98516.53;;;26.75;26.13
41140;BME280;26881;48.784;9.192;2023-08-08T11:49:10;98520.41;;;27.35;26.29
41140;BME280;26881;48.784;9.192;2023-08-08T11:54:31;98517.81;;;25.71;29.80
41140;BME280;26881;48.784;9.192;2023-08-08T11:59:54;98531.34;;;24.51;32.10
41140;BME280;26881;48.784;9.192;2023-08-08T12:05:15;98526.06;;;24.95;30.08
41140;BME280;26881;48.784;9.192;2023-08-08T12:10:38;98516.97;;;26.07;28.48
41140;BME280;26881;48.784;9.192;2023-08-08T12:16:00;98517.66;;;25.43;29.79
41140;BME280;26881;48.784;9.192;2023-08-08T12:21:22;98507.16;;;25.41;29.52
41140;BME280;26881;48.784;9.192;2023-08-08T12:26:44;98490.28;;;25.99;28.87
41140;BME280;26881;48.784;9.192;2023-08-08T12:32:06;98497.28;;;25.78;29.19
41140;BME280;26881;48.784;9.192;2023-08-08T12:37:29;98495.34;;;25.72;28.90
41140;BME280;26881;48.784;9.192;2023-08-08T12:42:51;98497.06;;;25.95;28.73
41140;BME280;26881;48.784;9.192;2023-08-08T12:48:13;98504.41;;;25.71;30.50
41140;BME280;26881;48.784;9.192;2023-08-08T12:53:35;98482.78;;;26.37;31.56
41140;BME280;26881;48.784;9.192;2023-08-08T12:58:57;98491.03;;;26.92;28.21
41140;BME280;26881;48.784;9.192;2023-08-08T13:04:19;98481.34;;;27.94;26.91
41140;BME280;26881;48.784;9.192;2023-08-08T13:09:41;98476.59;;;26.37;29.01
41140;BME280;26881;48.784;9.192;2023-08-08T13:15:03;98491.16;;;24.59;31.64
41140;BME280;26881;48.784;9.192;2023-08-08T13:20:28;98484.44;;;24.63;32.21
41140;BME280;26881;48.784;9.192;2023-08-08T13:25:49;98487.66;;;24.21;33.33
41140;BME280;26881;48.784;9.192;2023-08-08T13:31:11;98505.28;;;23.84;34.71
41140;BME280;26881;48.784;9.192;2023-08-08T13:36:33;98503.19;;;24.93;33.41
41140;BME280;26881;48.784;9.192;2023-08-08T13:41:55;98480.56;;;27.04;30.36
41140;BME280;26881;48.784;9.192;2023-08-08T13:47:17;98469.78;;;28.40;28.48
41140;BME280;26881;48.784;9.192;2023-08-08T13:52:40;98484.50;;;25.80;30.96
41140;BME280;26881;48.784;9.192;2023-08-08T13:58:02;98464.91;;;27.56;29.16
41140;BME280;26881;48.784;9.192;2023-08-08T14:03:24;98459.03;;;27.93;28.98
41140;BME280;26881;48.784;9.192;2023-08-08T14:08:46;98454.97;;;29.61;26.34
41140;BME280;26881;48.784;9.192;2023-08-08T14:14:09;98467.16;;;26.19;29.77
41140;BME280;26881;48.784;9.192;2023-08-08T14:19:31;98490.56;;;24.11;33.28
41140;BME280;26881;48.784;9.192;2023-08-08T14:24:53;98484.66;;;25.21;32.64
41140;BME280;26881;48.784;9.192;2023-08-08T14:30:15;98493.03;;;25.03;32.26
41140;BME280;26881;48.784;9.192;2023-08-08T14:35:37;98500.97;;;23.83;34.49
41140;BME280;26881;48.784;9.192;2023-08-08T14:40:59;98504.56;;;23.27;36.42
41140;BME280;26881;48.784;9.192;2023-08-08T14:46:20;98509.53;;;23.30;36.74
41140;BME280;26881;48.784;9.192;2023-08-08T14:51:42;98513.00;;;22.91;37.87
41140;BME280;26881;48.784;9.192;2023-08-08T14:57:04;98513.00;;;22.91;37.38
41140;BME280;26881;48.784;9.192;2023-08-08T15:02:27;98509.34;;;22.76;37.79
41140;BME280;26881;48.784;9.192;2023-08-08T15:07:49;98511.53;;;22.64;38.01
41140;BME280;26881;48.784;9.192;2023-08-08T15:13:11;98518.25;;;22.36;38.26
41140;BME280;26881;48.784;9.192;2023-08-08T15:18:33;98512.03;;;22.19;39.25
41140;BME280;26881;48.784;9.192;2023-08-08T15:23:55;98518.34;;;22.01;39.99
41140;BME280;26881;48.784;9.192;2023-08-08T15:29:17;98520.22;;;22.17;39.73
41140;BME280;26881;48.784;9.192;2023-08-08T15:34:39;98526.50;;;23.46;37.14
41140;BME280;26881;48.784;9.192;2023-08-08T15:40:01;98513.44;;;23.51;36.91
41140;BME280;26881;48.784;9.192;2023-08-08T15:45:23;98513.81;;;22.92;37.96
41140;BME280;26881;48.784;9.192;2023-08-08T15:50:45;98530.06;;;22.33;39.73
41140;BME280;26881;48.784;9.192;2023-08-08T15:56:07;98530.59;;;21.70;41.20
41140;BME280;26881;48.784;9.192;2023-08-08T16:01:29;98529.09;;;21.67;41.29
41140;BME280;26881;48.784;9.192;2023-08-08T16:06:51;98532.00;;;22.06;40.96
41140;BME280;26881;48.784;9.192;2023-08-08T16:12:13;98541.13;;;21.87;41.53
41140;BME280;26881;48.784;9.192;2023-08-08T16:17:35;98525.84;;;22.14;40.31
41140;BME280;26881;48.784;9.192;2023-08-08T16:22:56;98524.41;;;22.36;40.71
41140;BME280;26881;48.784;9.192;2023-08-08T16:28:18;98523.22;;;22.22;40.89
41140;BME280;26881;48.784;9.192;2023-08-08T16:33:40;98521.69;;;22.12;40.93
41140;BME280;26881;48.784;9.192;2023-08-08T16:39:04;98525.00;;;21.97;41.38
41140;BME280;26881;48.784;9.192;2023-08-08T16:44:39;98537.06;;;21.59;42.09
41140;BME280;26881;48.784;9.192;2023-08-08T16:50:02;98532.53;;;21.51;41.69
41140;BME280;26881;48.784;9.192;2023-08-08T16:55:24;98532.91;;;21.56;42.04
41140;BME280;26881;48.784;9.192;2023-08-08T17:00:46;98531.03;;;21.49;42.02
41140;BME280;26881;48.784;9.192;2023-08-08T17:06:08;98536.69;;;21.45;42.31
41140;BME280;26881;48.784;9.192;2023-08-08T17:11:32;98546.19;;;21.48;43.12
41140;BME280;26881;48.784;9.192;2023-08-08T17:16:54;98540.09;;;21.64;42.46
41140;BME280;26881;48.784;9.192;2023-08-08T17:22:16;98554.00;;;21.50;42.71
41140;BME280;26881;48.784;9.192;2023-08-08T17:27:38;98546.41;;;21.29;43.38
41140;BME280;26881;48.784;9.192;2023-08-08T17:33:00;98548.88;;;21.30;43.06
41140;BME280;26881;48.784;9.192;2023-08-08T17:38:22;98548.53;;;21.17;42.33
41140;BME280;26881;48.784;9.192;2023-08-08T17:43:44;98540.00;;;21.13;42.97
41140;BME280;26881;48.784;9.192;2023-08-08T17:49:05;98551.72;;;20.94;42.99
41140;BME280;26881;48.784;9.192;2023-08-08T17:54:27;98547.66;;;20.82;43.31
41140;BME280;26881;48.784;9.192;2023-08-08T17:59:49;98559.59;;;20.78;43.97
41140;BME280;26881;48.784;9.192;2023-08-08T18:05:12;98555.34;;;20.67;44.65
41140;BME280;26881;48.784;9.192;2023-08-08T18:10:35;98549.88;;;20.69;44.75
41140;BME280;26881;48.784;9.192;2023-08-08T18:15:57;98542.53;;;20.62;45.18
41140;BME280;26881;48.784;9.192;2023-08-08T18:21:21;98538.53;;;20.58;45.47
41140;BME280;26881;48.784;9.192;2023-08-08T18:26:43;98535.00;;;20.58;45.51
41140;BME280;26881;48.784;9.192;2023-08-08T18:32:05;98537.44;;;20.51;45.92
41140;BME280;26881;48.784;9.192;2023-08-08T18:37:27;98530.88;;;20.37;46.61
41140;BME280;26881;48.784;9.192;2023-08-08T18:42:49;98536.84;;;20.39;46.51
41140;BME280;26881;48.784;9.192;2023-08-08T18:48:11;98542.91;;;20.32;47.22
41140;BME280;26881;48.784;9.192;2023-08-08T18:53:33;98542.88;;;20.24;47.05
41140;BME280;26881;48.784;9.192;2023-08-08T18:58:57;98547.25;;;20.15;47.58
41140;BME280;26881;48.784;9.192;2023-08-08T19:04:19;98551.97;;;20.03;48.23
41140;BME280;26881;48.784;9.192;2023-08-08T19:09:41;98549.59;;;19.82;48.95
41140;BME280;26881;48.784;9.192;2023-08-08T19:15:04;98551.19;;;19.75;49.17
41140;BME280;26881;48.784;9.192;2023-08-08T19:20:26;98552.16;;;19.74;49.34
41140;BME280;26881;48.784;9.192;2023-08-08T19:25:48;98552.19;;;19.64;49.67
41140;BME280;26881;48.784;9.192;2023-08-08T19:31:11;98568.03;;;19.56;50.49
41140;BME280;26881;48.784;9.192;2023-08-08T19:36:33;98565.19;;;19.57;50.50
41140;BME280;26881;48.784;9.192;2023-08-08T19:41:55;98560.28;;;19.63;50.51
41140;BME280;26881;48.784;9.192;2023-08-08T19:47:17;98573.06;;;19.49;51.23
41140;BME280;26881;48.784;9.192;2023-08-08T19:52:40;98576.16;;;19.45;51.39
41140;BME280;26881;48.784;9.192;2023-08-08T19:58:03;98580.34;;;19.47;51.92
41140;BME280;26881;48.784;9.192;2023-08-08T20:03:25;98566.84;;;19.41;52.00
41140;BME280;26881;48.784;9.192;2023-08-08T20:08:47;98567.28;;;19.36;52.21
41140;BME280;26881;48.784;9.192;2023-08-08T20:14:09;98566.88;;;19.31;52.58
41140;BME280;26881;48.784;9.192;2023-08-08T20:19:31;98570.06;;;19.34;52.29
41140;BME280;26881;48.784;9.192;2023-08-08T20:24:53;98552.25;;;19.27;53.09
41140;BME280;26881;48.784;9.192;2023-08-08T20:30:19;98559.38;;;19.26;53.02
41140;BME280;26881;48.784;9.192;2023-08-08T20:35:41;98555.47;;;19.21;52.99
41140;BME280;26881;48.784;9.192;2023-08-08T20:41:03;98563.19;;;19.04;53.85
41140;BME280;26881;48.784;9.192;2023-08-08T20:46:25;98559.28;;;19.08;53.59
41140;BME280;26881;48.784;9.192;2023-08-08T20:51:47;98558.75;;;19.05;53.79
41140;BME280;26881;48.784;9.192;2023-08-08T20:57:09;98564.75;;;18.97;53.78
41140;BME280;26881;48.784;9.192;2023-08-08T21:02:31;98555.16;;;18.96;54.01
41140;BME280;26881;48.784;9.192;2023-08-08T21:07:59;98556.00;;;18.87;54.13
41140;BME280;26881;48.784;9.192;2023-08-08T21:13:22;98549.31;;;18.73;54.84
41140;BME280;26881;48.784;9.192;2023-08-08T21:18:45;98546.69;;;18.63;55.04
41140;BME280;26881;48.784;9.192;2023-08-08T21:24:07;98541.38;;;18.63;55.31
41140;BME280;26881;48.784;9.192;2023-08-08T21:29:32;98543.34;;;18.61;55.36
41140;BME280;26881;48.784;9.192;2023-08-08T21:34:54;98544.19;;;18.52;55.98
41140;BME280;26881;48.784;9.192;2023-08-08T21:40:16;98543.63;;;18.48;55.98
41140;BME280;26881;48.784;9.192;2023-08-08T21:45:38;98535.56;;;18.40;56.46
41140;BME280;26881;48.784;9.192;2023-08-08T21:51:00;98532.63;;;18.43;56.49
41140;BME280;26881;48.784;9.192;2023-08-08T21:56:22;98528.19;;;18.44;56.36
41140;BME280;26881;48.784;9.192;2023-08-08T22:01:45;98524.25;;;18.48;56.27
41140;BME280;26881;48.784;9.192;2023-08-08T22:07:06;98513.25;;;18.43;56.91
41140;BME280;26881;48.784;9.192;2023-08-08T22:12:29;98505.03;;;18.46;56.18
41140;BME280;26881;48.784;9.192;2023-08-08T22:17:51;98500.28;;;18.49;55.97
41140;BME280;26881;48.784;9.192;2023-08-08T22:23:26;98486.88;;;18.61;55.50
41140;BME280;26881;48.784;9.192;2023-08-08T22:28:48;98492.06;;;18.52;55.94
41140;BME280;26881;48.784;9.192;2023-08-08T22:34:11;98487.59;;;18.43;56.56
41140;BME280;26881;48.784;9.192;2023-08-08T22:39:33;98484.97;;;18.33;56.71
41140;BME280;26881;48.784;9.192;2023-08-08T22:44:55;98474.94;;;18.27;57.01
41140;BME280;26881;48.784;9.192;2023-08-08T22:50:17;98478.59;;;18.26;57.48
41140;BME280;26881;48.784;9.192;2023-08-08T22:55:38;98488.19;;;18.27;57.00
41140;BME280;26881;48.784;9.192;2023-08-08T23:01:00;98486.53;;;18.26;57.47
41140;BME280;26881;48.784;9.192;2023-08-08T23:06:22;98478.88;;;18.23;58.00
41140;BME280;26881;48.784;9.192;2023-08-08T23:11:44;98464.38;;;18.18;57.45
41140;BME280;26881;48.784;9.192;2023-08-08T23:17:07;98467.31;;;18.15;57.72
41140;BME280;26881;48.784;9.192;2023-08-08T23:22:29;98470.97;;;18.14;57.92
41140;BME280;26881;48.784;9.192;2023-08-08T23:27:51;98472.50;;;18.16;57.58
41140;BME280;26881;48.784;9.192;2023-08-08T23:33:13;98468.16;;;18.15;57.67
41140;BME280;26881;48.784;9.192;2023-08-08T23:38:35;98466.34;;;18.16;57.83
41140;BME280;26881;48.784;9.192;2023-08-08T23:43:58;98463.56;;;18.17;58.29
41140;BME280;26881;48.784;9.192;2023-08-08T23:49:19;98465.25;;;18.18;58.24
41140;BME280;26881;48.784;9.192;2023-08-08T23:54:41;98467.72;;;18.20;57.73
